Time;durP1;ratioP1;P1;durP2;ratioP2;P2;SDS_P1;SDS_P2;PMS_P1;PMS_P2;Temp;Humidity;BMP_temperature;BMP_pressure;BME280_temperature;BME280_humidity;BME280_pressure;Samples;Min_cycle;Max_cycle;Signal;HPM_P1;HPM_P2
2023/06/29 00:00:09;;;;;;;8.40;8.10;;;20.80;99.90;;;;;;5045539;28;20657;-66
2023/06/29 00:02:36;;;;;;;8.40;8.10;;;20.60;99.90;;;;;;5037683;28;20902;-66
2023/06/29 00:05:03;;;;;;;7.93;7.73;;;20.60;99.90;;;;;;5033931;28;20463;-66
2023/06/29 00:07:33;;;;;;;7.90;7.70;;;20.60;99.90;;;;;;5041288;28;20456;-67
2023/06/29 00:10:00;;;;;;;8.10;7.90;;;20.60;99.90;;;;;;5037351;28;20494;-67
2023/06/29 00:12:26;;;;;;;8.60;8.30;;;20.70;99.90;;;;;;5033441;28;20457;-65
2023/06/29 00:14:53;;;;;;;8.00;7.80;;;20.80;99.90;;;;;;5037008;28;20890;-66
2023/06/29 00:17:21;;;;;;;8.20;8.00;;;20.90;99.90;;;;;;5038489;28;20857;-67
2023/06/29 00:19:48;;;;;;;8.13;7.93;;;20.90;99.90;;;;;;5032146;28;20492;-66
2023/06/29 00:22:15;;;;;;;8.20;7.90;;;20.90;99.90;;;;;;5024465;28;20499;-67
2023/06/29 00:24:44;;;;;;;7.40;7.20;;;20.90;99.90;;;;;;5030271;28;20568;-66
2023/06/29 00:27:11;;;;;;;7.60;7.40;;;20.90;99.90;;;;;;5035266;28;20472;-67
2023/06/29 00:32:19;;;;;;;9.63;9.33;;;20.60;99.90;;;;;;5034562;28;20597;-67
2023/06/29 00:34:47;;;;;;;9.60;9.30;;;20.60;99.90;;;;;;5038347;28;20473;-66
2023/06/29 00:37:13;;;;;;;8.80;8.50;;;20.60;99.90;;;;;;5036429;28;20460;-66
2023/06/29 00:39:40;;;;;;;9.60;9.30;;;20.60;99.90;;;;;;5039005;28;20938;-67
2023/06/29 00:42:09;;;;;;;8.27;7.97;;;20.50;99.90;;;;;;5037847;28;20467;-66
2023/06/29 00:44:37;;;;;;;6.77;6.47;;;20.30;99.90;;;;;;5045752;28;20538;-65
2023/06/29 00:47:04;;;;;;;6.70;6.50;;;20.10;99.90;;;;;;5034903;28;20485;-67
2023/06/29 00:49:31;;;;;;;7.27;7.07;;;19.90;99.90;;;;;;5038209;28;20699;-66
2023/06/29 00:51:58;;;;;;;6.60;6.40;;;20.00;99.90;;;;;;5040009;28;20456;-67
2023/06/29 00:54:26;;;;;;;9.30;9.00;;;19.90;99.90;;;;;;5038865;28;20487;-66
2023/06/29 00:56:53;;;;;;;6.70;6.50;;;19.90;99.90;;;;;;5042738;28;20459;-66
2023/06/29 00:59:21;;;;;;;6.60;6.40;;;19.80;99.90;;;;;;5029146;28;20468;-67
2023/06/29 01:01:48;;;;;;;7.03;6.83;;;19.80;99.90;;;;;;5044181;28;20487;-67
2023/06/29 01:04:25;;;;;;;7.40;7.20;;;19.80;99.90;;;;;;5038986;28;20456;-67
2023/06/29 01:06:56;;;;;;;7.70;7.50;;;19.80;99.90;;;;;;5043190;28;20547;-66
2023/06/29 01:09:24;;;;;;;8.00;7.80;;;19.80;99.90;;;;;;5043506;28;20971;-68
2023/06/29 01:11:53;;;;;;;8.73;8.43;;;19.80;99.90;;;;;;5041342;28;20463;-65
2023/06/29 01:14:23;;;;;;;10.67;10.27;;;19.80;99.90;;;;;;5046198;28;20468;-65
2023/06/29 01:16:52;;;;;;;9.33;9.03;;;19.90;99.90;;;;;;5043503;28;20463;-67
2023/06/29 01:19:25;;;;;;;9.40;9.10;;;20.00;99.90;;;;;;5043075;28;20471;-66
2023/06/29 01:22:01;;;;;;;9.60;9.30;;;20.10;99.90;;;;;;5029760;28;20565;-68
2023/06/29 01:24:37;;;;;;;11.43;11.03;;;20.20;99.90;;;;;;5043527;28;20471;-66
2023/06/29 01:27:04;;;;;;;10.60;10.23;;;20.20;99.90;;;;;;5045322;28;20463;-66
2023/06/29 01:29:32;;;;;;;10.07;9.67;;;20.20;99.90;;;;;;5036088;28;20476;-67
2023/06/29 01:32:00;;;;;;;10.33;9.93;;;20.30;99.90;;;;;;5035778;28;20517;-67
2023/06/29 01:34:27;;;;;;;12.37;11.97;;;20.30;99.90;;;;;;5036379;28;20483;-67
2023/06/29 01:36:56;;;;;;;10.40;10.00;;;20.20;99.90;;;;;;5046061;28;20463;-66
2023/06/29 01:39:26;;;;;;;10.20;9.90;;;20.20;99.90;;;;;;5036908;28;20460;-65
2023/06/29 01:41:57;;;;;;;14.67;14.13;;;20.20;99.90;;;;;;5033479;28;20509;-66
2023/06/29 01:44:23;;;;;;;10.50;10.10;;;20.20;99.90;;;;;;5039262;28;20492;-64
2023/06/29 01:46:53;;;;;;;12.13;11.63;;;20.20;99.90;;;;;;5035199;28;20997;-64
2023/06/29 01:49:20;;;;;;;11.20;10.80;;;20.20;99.90;;;;;;5048101;28;20470;-63
2023/06/29 01:51:47;;;;;;;12.80;12.30;;;20.30;99.90;;;;;;5040456;28;20787;-65
2023/06/29 01:54:14;;;;;;;15.77;15.07;;;20.20;99.90;;;;;;5034197;28;20461;-64
2023/06/29 01:56:41;;;;;;;11.20;10.80;;;20.20;99.90;;;;;;5047478;28;20456;-64
2023/06/29 01:59:10;;;;;;;10.80;10.40;;;20.20;99.90;;;;;;5034823;28;21149;-63
2023/06/29 02:01:38;;;;;;;11.90;11.50;;;20.20;99.90;;;;;;5038382;28;21048;-63
2023/06/29 02:04:05;;;;;;;10.90;10.50;;;20.20;99.90;;;;;;5042484;28;20632;-65
2023/06/29 02:06:32;;;;;;;11.33;10.93;;;20.20;99.90;;;;;;5033072;28;20500;-64
2023/06/29 02:08:59;;;;;;;14.60;14.00;;;20.20;99.90;;;;;;5045810;28;20455;-64
2023/06/29 02:11:26;;;;;;;11.00;10.60;;;20.20;99.90;;;;;;5035187;28;20478;-64
2023/06/29 02:13:53;;;;;;;12.30;11.90;;;20.20;99.90;;;;;;5032210;28;20974;-66
2023/06/29 02:16:22;;;;;;;11.10;10.70;;;20.20;99.90;;;;;;5042521;28;20494;-65
2023/06/29 02:18:48;;;;;;;11.33;10.93;;;20.30;99.90;;;;;;5042421;28;20463;-64
2023/06/29 02:21:15;;;;;;;12.83;12.33;;;20.30;99.90;;;;;;5037768;28;20494;-66
2023/06/29 02:23:42;;;;;;;16.47;15.83;;;20.30;99.90;;;;;;5038164;28;21014;-65
2023/06/29 02:26:09;;;;;;;10.83;10.43;;;20.50;99.90;;;;;;5034598;28;20461;-64
2023/06/29 02:28:36;;;;;;;11.33;10.77;;;20.50;99.90;;;;;;5041736;28;20834;-64
2023/06/29 02:31:03;;;;;;;22.17;21.27;;;20.50;99.90;;;;;;5037138;28;20461;-65
2023/06/29 02:33:31;;;;;;;10.70;10.30;;;20.40;99.90;;;;;;5033570;28;20467;-65
2023/06/29 02:35:58;;;;;;;12.10;11.30;;;20.40;99.90;;;;;;5038421;28;20507;-63
2023/06/29 02:38:26;;;;;;;11.00;10.60;;;20.30;99.90;;;;;;5042283;28;20802;-63
2023/06/29 02:40:53;;;;;;;10.77;10.37;;;20.30;99.90;;;;;;5038545;28;20488;-65
2023/06/29 02:43:19;;;;;;;11.80;11.40;;;20.30;99.90;;;;;;5038732;28;20472;-65
2023/06/29 02:45:46;;;;;;;17.40;16.63;;;20.30;99.90;;;;;;5040506;28;20797;-64
2023/06/29 02:48:14;;;;;;;10.80;10.40;;;20.30;99.90;;;;;;5032861;28;20979;-64
2023/06/29 02:50:43;;;;;;;11.27;10.87;;;20.20;99.90;;;;;;5037407;28;20464;-63
2023/06/29 02:53:14;;;;;;;10.70;10.30;;;20.20;99.90;;;;;;5038195;28;20463;-63
2023/06/29 02:55:41;;;;;;;13.03;12.63;;;20.30;99.90;;;;;;5040673;28;20496;-65
2023/06/29 02:58:07;;;;;;;10.80;10.40;;;20.30;99.90;;;;;;5029597;28;20499;-65
2023/06/29 03:00:34;;;;;;;10.40;10.00;;;20.40;99.90;;;;;;5042971;28;20483;-64
2023/06/29 03:03:01;;;;;;;10.93;10.53;;;20.30;99.90;;;;;;5032121;28;20460;-63
2023/06/29 03:05:28;;;;;;;10.80;10.40;;;20.20;99.90;;;;;;5037503;28;20586;-63
2023/06/29 03:07:56;;;;;;;11.27;10.87;;;20.30;99.90;;;;;;5040279;28;20834;-65
2023/06/29 03:10:23;;;;;;;11.00;10.60;;;20.30;99.90;;;;;;5042941;28;20464;-63
2023/06/29 03:12:49;;;;;;;13.10;12.60;;;20.20;99.90;;;;;;5031060;28;20476;-66
2023/06/29 03:15:16;;;;;;;11.20;10.80;;;20.20;99.90;;;;;;5038049;28;21127;-65
2023/06/29 03:17:43;;;;;;;11.77;11.37;;;20.20;99.90;;;;;;5044468;28;20521;-63
2023/06/29 03:20:13;;;;;;;11.10;10.70;;;20.20;99.90;;;;;;5023813;28;21126;-64
2023/06/29 03:22:40;;;;;;;10.73;10.33;;;20.20;99.90;;;;;;5029465;28;21080;-64
2023/06/29 03:25:10;;;;;;;14.50;14.00;;;20.20;99.90;;;;;;5038598;28;20484;-64
2023/06/29 03:27:38;;;;;;;11.53;11.13;;;20.20;99.90;;;;;;5041261;28;20498;-64
2023/06/29 03:30:06;;;;;;;11.30;10.90;;;20.20;99.90;;;;;;5038802;28;20468;-64
2023/06/29 03:32:33;;;;;;;11.00;10.60;;;20.30;99.90;;;;;;5037279;28;20824;-63
2023/06/29 03:35:00;;;;;;;11.30;10.90;;;20.40;99.90;;;;;;5046050;28;20467;-65
2023/06/29 03:37:27;;;;;;;11.43;11.03;;;20.40;99.90;;;;;;5038674;28;20738;-63
2023/06/29 03:39:55;;;;;;;11.40;11.00;;;20.50;99.90;;;;;;5038810;28;21028;-65
2023/06/29 03:42:23;;;;;;;14.10;13.60;;;20.50;99.90;;;;;;5039945;28;20484;-63
2023/06/29 03:44:51;;;;;;;11.80;11.40;;;20.50;99.90;;;;;;5030983;28;20467;-66
2023/06/29 03:47:18;;;;;;;11.60;11.20;;;20.60;99.90;;;;;;5040594;28;20486;-64
2023/06/29 03:49:45;;;;;;;11.73;11.33;;;20.60;99.90;;;;;;5037562;28;20529;-64
2023/06/29 03:52:12;;;;;;;11.60;11.20;;;20.70;99.90;;;;;;5039067;28;20461;-64
2023/06/29 03:54:39;;;;;;;14.43;13.93;;;20.80;99.90;;;;;;5027796;28;20472;-63
2023/06/29 03:57:06;;;;;;;12.10;11.70;;;20.80;99.90;;;;;;5036593;28;20509;-65
2023/06/29 03:59:34;;;;;;;11.70;11.30;;;20.80;99.90;;;;;;5038604;28;20502;-64
2023/06/29 04:02:01;;;;;;;11.77;11.37;;;20.90;99.90;;;;;;5039372;28;20861;-64
2023/06/29 04:04:28;;;;;;;12.93;12.43;;;20.90;99.90;;;;;;5046479;28;20460;-65
2023/06/29 04:06:55;;;;;;;12.30;11.90;;;20.90;99.90;;;;;;5041547;28;20463;-64
2023/06/29 04:09:23;;;;;;;12.20;11.80;;;20.90;99.90;;;;;;5035643;28;20814;-63
2023/06/29 04:11:50;;;;;;;12.27;11.87;;;20.90;99.90;;;;;;5040178;28;20464;-64
2023/06/29 04:14:17;;;;;;;12.73;12.10;;;21.00;99.90;;;;;;5036820;28;20491;-65
2023/06/29 04:16:45;;;;;;;13.17;12.67;;;20.90;99.90;;;;;;5036250;28;20977;-64
2023/06/29 04:19:12;;;;;;;12.13;11.70;;;20.90;99.90;;;;;;5044507;28;20841;-65
2023/06/29 04:21:40;;;;;;;13.03;12.53;;;20.90;99.90;;;;;;5025897;28;20895;-65
2023/06/29 04:24:07;;;;;;;12.93;12.43;;;20.90;99.90;;;;;;5040081;28;20472;-63
2023/06/29 04:26:33;;;;;;;14.80;14.20;;;20.90;99.90;;;;;;5036143;28;21039;-63
2023/06/29 04:29:01;;;;;;;12.70;12.20;;;21.00;99.90;;;;;;5041991;28;20983;-65
2023/06/29 04:31:29;;;;;;;12.80;12.30;;;20.90;99.90;;;;;;5047263;28;20463;-65
2023/06/29 04:33:58;;;;;;;13.90;13.40;;;21.00;99.90;;;;;;5049081;28;20459;-64
2023/06/29 04:36:25;;;;;;;12.50;12.00;;;21.10;99.90;;;;;;5041888;28;20492;-65
2023/06/29 04:38:53;;;;;;;12.60;12.10;;;21.00;99.90;;;;;;5045707;28;21300;-63
2023/06/29 04:41:24;;;;;;;13.60;13.10;;;21.00;99.90;;;;;;5041516;28;20484;-64
2023/06/29 04:43:53;;;;;;;12.00;11.60;;;21.10;99.90;;;;;;5044139;28;20456;-65
2023/06/29 04:46:19;;;;;;;12.30;11.90;;;21.10;99.90;;;;;;5033441;28;20892;-65
2023/06/29 04:48:47;;;;;;;13.00;12.50;;;21.00;99.90;;;;;;5043817;28;21164;-64
2023/06/29 04:51:18;;;;;;;14.80;14.20;;;21.10;99.90;;;;;;5035229;28;20463;-65
2023/06/29 04:53:45;;;;;;;12.83;12.33;;;21.30;99.90;;;;;;5037123;28;20467;-63
2023/06/29 04:56:13;;;;;;;13.03;12.53;;;21.40;99.90;;;;;;5040822;28;20468;-64
2023/06/29 04:58:39;;;;;;;15.87;15.07;;;21.40;99.90;;;;;;5044354;28;20475;-63
2023/06/29 05:01:06;;;;;;;13.30;12.80;;;21.40;99.90;;;;;;5036264;28;20960;-64
2023/06/29 05:03:35;;;;;;;14.90;13.77;;;21.40;99.90;;;;;;5035671;28;20940;-65
2023/06/29 05:06:02;;;;;;;14.00;13.50;;;21.40;99.90;;;;;;5038178;28;20452;-63
2023/06/29 05:08:31;;;;;;;15.17;14.57;;;21.50;99.90;;;;;;5033371;28;20468;-64
2023/06/29 05:10:58;;;;;;;14.20;13.60;;;21.50;99.90;;;;;;5040624;28;20498;-64
2023/06/29 05:13:24;;;;;;;13.40;12.90;;;21.60;99.90;;;;;;5042277;28;21013;-64
2023/06/29 05:15:52;;;;;;;15.37;14.40;;;21.50;99.90;;;;;;5033862;28;20492;-66
2023/06/29 05:18:18;;;;;;;13.13;12.63;;;21.50;99.90;;;;;;5039993;28;20468;-66
2023/06/29 05:20:46;;;;;;;15.47;14.50;;;21.60;99.90;;;;;;5040059;28;20470;-65
2023/06/29 05:23:13;;;;;;;14.17;13.37;;;21.60;99.90;;;;;;5029251;28;20496;-64
2023/06/29 05:25:42;;;;;;;15.30;14.50;;;21.60;99.90;;;;;;5044659;28;20509;-65
2023/06/29 05:28:09;;;;;;;13.63;13.13;;;21.40;99.90;;;;;;5043117;28;20463;-64
2023/06/29 05:30:36;;;;;;;15.87;15.30;;;21.40;99.90;;;;;;5036727;28;20472;-65
2023/06/29 05:33:04;;;;;;;13.90;13.30;;;21.50;99.90;;;;;;5037385;28;20465;-65
2023/06/29 05:35:34;;;;;;;12.47;11.97;;;21.50;99.90;;;;;;5041896;28;20452;-65
2023/06/29 05:38:00;;;;;;;13.20;12.70;;;21.70;99.90;;;;;;5031339;28;20510;-65
2023/06/29 05:40:27;;;;;;;15.87;15.20;;;21.50;99.90;;;;;;5036728;28;21111;-64
2023/06/29 05:42:56;;;;;;;13.40;12.90;;;21.60;99.90;;;;;;5042247;28;20790;-66
2023/06/29 05:45:23;;;;;;;14.27;13.67;;;21.90;99.90;;;;;;5045143;28;20899;-65
2023/06/29 05:47:52;;;;;;;17.43;16.73;;;22.10;99.90;;;;;;5032388;28;20476;-64
2023/06/29 05:50:20;;;;;;;13.57;13.07;;;22.10;99.90;;;;;;5035386;28;20488;-64
2023/06/29 05:52:47;;;;;;;18.03;17.30;;;22.30;99.90;;;;;;5047119;28;20459;-65
2023/06/29 05:55:14;;;;;;;18.00;17.20;;;22.50;99.90;;;;;;5035876;28;20460;-66
2023/06/29 05:57:41;;;;;;;14.40;13.80;;;22.60;99.90;;;;;;5039322;28;20467;-65
2023/06/29 06:00:12;;;;;;;14.00;13.40;;;22.70;99.90;;;;;;5039778;28;20480;-65
2023/06/29 06:02:40;;;;;;;14.00;13.40;;;23.10;99.90;;;;;;5032531;28;20484;-63
2023/06/29 06:05:08;;;;;;;14.00;13.40;;;23.20;99.90;;;;;;5034990;28;20449;-65
2023/06/29 06:07:36;;;;;;;17.20;16.50;;;23.40;99.90;;;;;;5030692;28;20469;-65
2023/06/29 06:10:04;;;;;;;15.23;14.47;;;23.70;99.90;;;;;;5045025;28;20498;-66
2023/06/29 06:12:31;;;;;;;14.03;13.43;;;23.90;99.90;;;;;;5042636;28;20459;-65
2023/06/29 06:14:58;;;;;;;15.93;15.23;;;24.20;99.90;;;;;;5044014;28;20872;-65
2023/06/29 06:17:26;;;;;;;14.20;13.60;;;23.90;99.90;;;;;;5028871;28;20460;-63
2023/06/29 06:19:54;;;;;;;24.47;23.37;;;24.10;99.90;;;;;;5039108;28;20464;-64
2023/06/29 06:22:21;;;;;;;14.63;13.90;;;24.30;99.90;;;;;;5039109;28;20492;-65
2023/06/29 06:24:48;;;;;;;18.20;17.23;;;24.20;99.90;;;;;;5043214;28;20497;-63
2023/06/29 06:27:14;;;;;;;14.07;13.47;;;24.30;99.90;;;;;;5036095;28;20530;-64
2023/06/29 06:29:43;;;;;;;33.20;31.70;;;24.20;99.90;;;;;;5037816;28;20459;-65
2023/06/29 06:32:10;;;;;;;14.17;13.57;;;23.90;99.90;;;;;;5033967;28;20456;-65
2023/06/29 06:34:38;;;;;;;16.10;15.40;;;23.90;99.90;;;;;;5036494;28;20986;-64
2023/06/29 06:37:06;;;;;;;22.87;21.90;;;24.10;99.90;;;;;;5039535;28;20973;-65
2023/06/29 06:39:33;;;;;;;25.30;24.20;;;24.10;99.90;;;;;;5035630;28;20662;-65
2023/06/29 06:42:00;;;;;;;17.50;16.77;;;24.30;99.90;;;;;;5029467;28;20488;-65
2023/06/29 06:44:27;;;;;;;16.33;15.63;;;24.40;99.90;;;;;;5037899;28;20496;-65
2023/06/29 06:46:55;;;;;;;15.93;15.23;;;24.30;99.90;;;;;;5033591;28;21013;-66
2023/06/29 06:49:22;;;;;;;14.30;13.70;;;24.20;99.90;;;;;;5032624;28;20494;-65
2023/06/29 06:51:52;;;;;;;26.77;25.60;;;24.10;99.90;;;;;;5037173;28;20467;-64
2023/06/29 06:54:19;;;;;;;14.23;13.63;;;23.90;99.90;;;;;;5036217;28;20476;-64
2023/06/29 06:56:45;;;;;;;30.60;29.27;;;23.70;99.90;;;;;;5039058;28;20504;-65
2023/06/29 06:59:13;;;;;;;14.30;13.70;;;23.70;99.90;;;;;;5026056;28;20637;-64
2023/06/29 07:01:42;;;;;;;22.17;21.27;;;23.70;99.90;;;;;;5033140;28;20456;-64
2023/06/29 07:04:09;;;;;;;19.13;18.37;;;23.70;99.90;;;;;;5042133;28;20907;-65
2023/06/29 07:06:36;;;;;;;21.27;20.37;;;23.80;99.90;;;;;;5029976;28;20472;-64
2023/06/29 07:09:07;;;;;;;22.97;22.00;;;23.80;99.90;;;;;;5043698;28;20463;-64
2023/06/29 07:11:34;;;;;;;23.33;22.37;;;23.80;99.90;;;;;;5032630;28;20492;-66
2023/06/29 07:14:01;;;;;;;25.23;24.23;;;23.90;99.90;;;;;;5041824;28;20797;-65
2023/06/29 07:16:28;;;;;;;17.20;16.50;;;23.90;99.90;;;;;;5031573;28;20495;-66
2023/06/29 07:19:05;;;;;;;15.30;14.50;;;23.90;99.90;;;;;;5045439;28;20830;-64
2023/06/29 07:21:32;;;;;;;14.20;13.60;;;23.90;99.90;;;;;;5029176;28;20474;-66
2023/06/29 07:23:59;;;;;;;17.63;16.90;;;24.00;99.90;;;;;;5033833;28;20496;-65
2023/06/29 07:26:28;;;;;;;17.90;17.20;;;24.00;99.90;;;;;;5036161;28;20468;-65
2023/06/29 07:28:55;;;;;;;13.70;13.20;;;23.90;99.90;;;;;;5031217;28;20468;-64
2023/06/29 07:31:26;;;;;;;17.00;16.30;;;24.00;99.90;;;;;;5037830;28;20894;-64
2023/06/29 07:33:54;;;;;;;14.50;13.90;;;24.20;99.90;;;;;;5040508;28;20456;-64
2023/06/29 07:36:21;;;;;;;16.73;15.97;;;24.40;99.90;;;;;;5025913;28;20487;-65
2023/06/29 07:38:48;;;;;;;13.77;13.20;;;24.60;99.90;;;;;;5033739;28;20932;-65
2023/06/29 07:41:15;;;;;;;19.60;18.77;;;24.80;99.90;;;;;;5029529;28;20455;-66
2023/06/29 07:43:47;;;;;;;16.37;15.67;;;24.80;99.90;;;;;;5026165;28;20528;-65
2023/06/29 07:46:14;;;;;;;14.40;13.80;;;24.30;99.90;;;;;;5034503;28;20603;-65
2023/06/29 07:48:42;;;;;;;20.03;18.87;;;24.50;99.90;;;;;;5031528;28;20461;-65
2023/06/29 07:51:09;;;;;;;17.07;16.33;;;24.70;99.90;;;;;;5027833;28;20461;-64
2023/06/29 07:53:37;;;;;;;16.00;14.90;;;24.90;99.90;;;;;;5031793;28;20487;-66
2023/06/29 07:56:03;;;;;;;28.97;27.53;;;24.80;99.90;;;;;;5032316;28;20751;-66
2023/06/29 07:58:31;;;;;;;15.53;14.73;;;25.00;99.90;;;;;;5025100;28;20456;-65
2023/06/29 08:01:01;;;;;;;27.20;25.80;;;25.30;99.90;;;;;;5031066;28;20483;-65
2023/06/29 08:03:28;;;;;;;18.63;17.83;;;25.70;99.90;;;;;;5030705;28;20587;-64
2023/06/29 08:05:55;;;;;;;21.20;20.23;;;25.80;99.90;;;;;;5025212;28;20456;-66
2023/06/29 08:08:21;;;;;;;23.93;22.93;;;25.90;99.90;;;;;;5026689;28;20459;-66
2023/06/29 08:10:48;;;;;;;23.20;22.20;;;26.30;99.90;;;;;;5035644;28;20967;-66
2023/06/29 08:13:16;;;;;;;31.33;30.03;;;26.70;99.90;;;;;;5029200;28;20468;-65
2023/06/29 08:15:43;;;;;;;16.53;15.43;;;26.70;99.90;;;;;;5039818;28;20487;-65
2023/06/29 08:18:11;;;;;;;18.40;17.60;;;27.20;99.90;;;;;;5035958;28;20869;-65
2023/06/29 08:20:38;;;;;;;18.30;17.33;;;27.50;99.90;;;;;;5036377;28;20461;-67
2023/06/29 08:23:05;;;;;;;29.77;28.47;;;27.40;99.90;;;;;;5026504;28;21030;-67
2023/06/29 08:25:32;;;;;;;18.83;17.90;;;27.40;99.90;;;;;;5025777;28;20468;-67
2023/06/29 08:27:59;;;;;;;16.40;15.70;;;28.10;99.90;;;;;;5035161;28;20526;-66
2023/06/29 08:30:26;;;;;;;15.90;15.20;;;28.10;99.90;;;;;;5032697;28;20461;-67
2023/06/29 08:32:54;;;;;;;17.10;16.50;;;28.30;99.90;;;;;;5028256;28;20803;-67
2023/06/29 08:35:23;;;;;;;22.37;21.47;;;28.70;99.90;;;;;;5027829;28;20473;-65
2023/06/29 08:37:50;;;;;;;19.80;19.00;;;29.00;99.90;;;;;;5030939;28;20799;-66
2023/06/29 08:40:19;;;;;;;30.93;29.53;;;29.00;99.90;;;;;;5025560;28;20580;-66
2023/06/29 08:42:47;;;;;;;21.63;20.33;;;29.10;99.90;;;;;;5032195;28;20570;-66
2023/06/29 08:45:14;;;;;;;18.27;16.37;;;28.80;99.90;;;;;;5034913;28;20839;-67
2023/06/29 08:47:43;;;;;;;25.30;24.10;;;29.00;99.90;;;;;;5030606;28;20495;-67
2023/06/29 08:50:11;;;;;;;19.47;18.57;;;29.30;99.90;;;;;;5024741;28;20795;-66
2023/06/29 08:52:40;;;;;;;20.93;19.93;;;29.40;99.90;;;;;;5030734;28;20950;-65
2023/06/29 08:55:07;;;;;;;26.33;25.23;;;28.70;99.90;;;;;;5042553;28;20848;-66
2023/06/29 08:57:34;;;;;;;33.57;32.03;;;28.70;99.90;;;;;;5032155;28;20456;-66
2023/06/29 09:00:03;;;;;;;38.73;36.93;;;29.10;99.90;;;;;;5031861;28;20464;-67
2023/06/29 09:02:32;;;;;;;19.10;18.00;;;29.00;99.90;;;;;;5030406;28;20615;-67
2023/06/29 09:04:59;;;;;;;26.13;24.90;;;28.80;99.90;;;;;;5037287;28;20456;-65
2023/06/29 09:07:26;;;;;;;21.10;20.20;;;28.90;99.90;;;;;;5033073;28;20468;-66
2023/06/29 09:09:55;;;;;;;17.67;16.87;;;28.40;99.90;;;;;;5034561;28;20819;-66
2023/06/29 09:12:22;;;;;;;26.03;24.43;;;28.50;99.90;;;;;;5036398;28;20456;-65
2023/06/29 09:14:50;;;;;;;18.27;17.30;;;29.20;99.90;;;;;;5034973;28;20488;-66
2023/06/29 09:17:20;;;;;;;20.90;20.10;;;30.00;99.90;;;;;;5038145;28;20518;-67
2023/06/29 09:19:54;;;;;;;18.73;18.03;;;30.50;99.90;;;;;;5033609;28;20459;-67
2023/06/29 09:22:21;;;;;;;19.77;18.97;;;30.80;99.90;;;;;;5039042;28;20563;-66
2023/06/29 09:24:48;;;;;;;19.03;18.33;;;31.00;99.90;;;;;;5027586;28;20547;-66
2023/06/29 09:27:16;;;;;;;21.20;20.40;;;31.10;99.90;;;;;;5036221;28;20942;-67
2023/06/29 09:29:50;;;;;;;19.77;19.00;;;30.70;99.90;;;;;;5036884;28;21016;-65
2023/06/29 09:32:17;;;;;;;23.57;22.67;;;30.30;99.90;;;;;;5037130;28;20463;-66
2023/06/29 09:34:46;;;;;;;32.20;30.67;;;29.90;99.90;;;;;;5038998;28;21234;-67
2023/06/29 09:37:14;;;;;;;18.20;17.20;;;30.00;99.90;;;;;;5034339;28;20952;-67
2023/06/29 09:39:50;;;;;;;18.40;17.50;;;30.30;99.90;;;;;;5032742;28;20868;-66
2023/06/29 09:42:20;;;;;;;19.60;18.60;;;30.20;99.90;;;;;;5036783;28;20979;-66
2023/06/29 09:44:47;;;;;;;16.60;16.00;;;30.60;99.90;;;;;;5036166;28;20464;-68
2023/06/29 09:47:14;;;;;;;20.70;19.57;;;30.50;99.90;;;;;;5026704;28;20489;-67
2023/06/29 09:49:48;;;;;;;18.57;17.67;;;30.10;99.90;;;;;;5043048;28;20966;-66
2023/06/29 09:52:16;;;;;;;16.80;16.00;;;29.90;99.90;;;;;;5038622;28;20495;-67
2023/06/29 09:54:43;;;;;;;15.40;14.90;;;30.20;99.90;;;;;;5034758;28;20471;-67
2023/06/29 09:57:11;;;;;;;15.30;14.80;;;29.60;99.90;;;;;;5035490;28;20499;-66
2023/06/29 09:59:41;;;;;;;15.40;14.90;;;29.40;99.90;;;;;;5041982;28;20479;-65
2023/06/29 10:02:08;;;;;;;15.37;14.87;;;29.30;99.90;;;;;;5034213;28;20460;-66
2023/06/29 10:04:35;;;;;;;15.13;14.63;;;28.80;99.90;;;;;;5037396;28;20491;-65
2023/06/29 10:07:07;;;;;;;15.23;14.73;;;28.20;99.90;;;;;;5033594;28;20794;-66
2023/06/29 10:09:38;;;;;;;14.87;14.37;;;28.00;99.90;;;;;;5039856;28;21041;-68
2023/06/29 10:12:07;;;;;;;15.40;14.90;;;27.50;99.90;;;;;;5034202;28;20464;-67
2023/06/29 10:14:35;;;;;;;14.63;14.13;;;27.40;99.90;;;;;;5034740;28;20472;-65
2023/06/29 10:17:09;;;;;;;14.50;14.00;;;27.50;99.90;;;;;;5037327;28;20456;-66
2023/06/29 10:19:37;;;;;;;14.60;14.10;;;27.40;99.90;;;;;;5031757;28;20491;-65
2023/06/29 10:22:07;;;;;;;14.23;13.80;;;27.20;99.90;;;;;;5036077;28;20499;-68
2023/06/29 10:24:38;;;;;;;13.93;13.53;;;27.00;99.90;;;;;;5041910;28;20494;-66
2023/06/29 10:27:07;;;;;;;13.53;13.13;;;26.70;99.90;;;;;;5039478;28;20514;-66
2023/06/29 10:29:42;;;;;;;13.00;12.60;;;26.30;99.90;;;;;;5029290;28;20469;-66
2023/06/29 10:32:28;;;;;;;13.20;12.80;;;25.80;99.90;;;;;;5036953;28;20452;-65
2023/06/29 10:35:05;;;;;;;13.03;12.63;;;25.60;99.90;;;;;;5038980;28;20456;-66
2023/06/29 10:37:32;;;;;;;12.90;12.50;;;25.40;99.90;;;;;;5029653;28;20464;-67
2023/06/29 10:39:59;;;;;;;12.90;12.50;;;25.60;99.90;;;;;;5037769;28;20488;-65
2023/06/29 10:42:49;;;;;;;12.90;12.50;;;25.60;99.90;;;;;;5032197;28;20467;-66
2023/06/29 10:45:30;;;;;;;12.90;12.50;;;25.50;99.90;;;;;;5031286;28;20860;-66
2023/06/29 10:48:21;;;;;;;12.90;12.50;;;25.70;99.90;;;;;;5040186;28;20475;-66
2023/06/29 10:50:50;;;;;;;13.70;13.30;;;26.20;99.90;;;;;;5030863;28;20510;-66
2023/06/29 10:53:18;;;;;;;16.57;15.87;;;26.50;99.90;;;;;;5030508;28;20534;-66
2023/06/29 10:58:32;;;;;;;17.00;16.00;;;27.30;99.90;;;;;;5033247;28;20464;-66
2023/06/29 11:00:59;;;;;;;19.37;18.27;;;27.80;99.90;;;;;;5031456;28;20498;-66
2023/06/29 11:03:27;;;;;;;18.00;17.27;;;28.00;99.90;;;;;;5039018;28;20487;-66
2023/06/29 11:05:56;;;;;;;18.03;17.23;;;28.20;99.90;;;;;;5036867;28;20464;-68
2023/06/29 11:08:25;;;;;;;16.50;15.70;;;28.30;99.90;;;;;;5028203;28;20464;-65
2023/06/29 11:10:52;;;;;;;17.33;16.63;;;28.80;99.90;;;;;;5032176;28;20466;-67
2023/06/29 11:13:20;;;;;;;19.03;18.10;;;29.00;99.90;;;;;;5031815;28;20467;-65
2023/06/29 11:15:54;;;;;;;16.67;15.97;;;28.90;99.90;;;;;;5033294;28;20835;-66
2023/06/29 11:18:22;;;;;;;19.30;18.30;;;28.70;99.90;;;;;;5032481;28;20469;-66
2023/06/29 11:20:50;;;;;;;16.40;15.10;;;28.50;99.90;;;;;;5034883;28;20468;-67
2023/06/29 11:23:18;;;;;;;17.73;16.80;;;28.70;99.90;;;;;;5033753;28;20498;-68
2023/06/29 11:25:45;;;;;;;20.90;19.20;;;28.60;99.90;;;;;;5029064;28;20560;-67
2023/06/29 11:28:16;;;;;;;15.80;15.07;;;29.10;99.90;;;;;;5033677;28;20460;-66
2023/06/29 11:30:43;;;;;;;16.33;15.30;;;29.20;99.90;;;;;;5032116;28;20515;-65
2023/06/29 11:33:12;;;;;;;18.83;17.67;;;29.30;99.90;;;;;;5040690;28;20452;-66
2023/06/29 11:35:43;;;;;;;15.70;15.00;;;28.90;99.90;;;;;;5038746;28;20982;-66
2023/06/29 11:38:11;;;;;;;19.13;17.80;;;28.60;99.90;;;;;;5035200;28;20551;-65
2023/06/29 11:40:38;;;;;;;18.10;17.20;;;28.00;99.90;;;;;;5029900;28;20452;-66
2023/06/29 11:43:05;;;;;;;15.90;15.20;;;28.20;99.90;;;;;;5034302;28;20455;-66
2023/06/29 11:45:33;;;;;;;16.63;15.83;;;28.10;99.90;;;;;;5038083;28;20513;-68
2023/06/29 11:48:00;;;;;;;17.37;16.57;;;28.00;99.90;;;;;;5035944;28;20485;-66
2023/06/29 11:50:30;;;;;;;15.20;14.60;;;27.80;99.90;;;;;;5034762;28;20559;-66
2023/06/29 11:52:57;;;;;;;18.90;17.10;;;27.80;99.90;;;;;;5037463;28;20468;-67
2023/06/29 11:55:26;;;;;;;16.47;15.63;;;27.60;99.90;;;;;;5037712;28;20966;-66
2023/06/29 11:57:55;;;;;;;18.50;17.40;;;27.00;99.90;;;;;;5035693;28;21125;-65
2023/06/29 12:00:33;;;;;;;18.63;17.20;;;26.80;99.90;;;;;;5043759;28;20742;-66
2023/06/29 12:03:08;;;;;;;19.90;18.73;;;26.50;99.90;;;;;;5026877;28;20831;-66
2023/06/29 12:05:39;;;;;;;15.63;14.93;;;26.50;99.90;;;;;;5036641;28;20515;-67
2023/06/29 12:08:08;;;;;;;18.83;17.97;;;26.30;99.90;;;;;;5027642;28;20820;-67
2023/06/29 12:10:38;;;;;;;18.30;16.87;;;26.30;99.90;;;;;;5038378;28;21072;-67
2023/06/29 12:13:05;;;;;;;17.80;16.90;;;26.10;99.90;;;;;;5032888;28;20476;-65
2023/06/29 12:15:33;;;;;;;14.50;13.90;;;26.10;99.90;;;;;;5041750;28;20484;-66
2023/06/29 12:18:07;;;;;;;19.33;18.00;;;26.20;99.90;;;;;;5032461;28;20448;-67
2023/06/29 12:20:39;;;;;;;17.40;16.60;;;26.30;99.90;;;;;;5029047;28;20903;-66
2023/06/29 12:23:07;;;;;;;14.63;14.03;;;26.20;99.90;;;;;;5039869;28;20552;-66
2023/06/29 12:25:44;;;;;;;18.17;17.27;;;26.40;99.90;;;;;;5037141;28;20505;-66
2023/06/29 12:28:11;;;;;;;20.83;19.73;;;26.30;99.90;;;;;;5028826;28;20969;-66
2023/06/29 12:30:38;;;;;;;17.37;16.30;;;26.00;99.90;;;;;;5039244;28;21214;-66
2023/06/29 12:33:06;;;;;;;19.40;18.00;;;26.10;99.90;;;;;;5038841;28;20457;-65
2023/06/29 12:35:32;;;;;;;18.10;16.73;;;26.10;99.90;;;;;;5026735;28;20798;-66
2023/06/29 12:38:00;;;;;;;15.63;14.77;;;26.10;99.90;;;;;;5034704;28;20475;-67